createdAt,value
2023-02-08T00:04:11.281Z,103766.47
2023-02-08T00:09:16.391Z,103774.06
2023-02-08T00:14:20.242Z,103770.62
2023-02-08T00:19:24.021Z,103760.03
2023-02-08T00:24:29.200Z,103759.44
2023-02-08T00:29:33.581Z,103759.94
2023-02-08T00:34:37.399Z,103756.50
2023-02-08T00:39:42.494Z,103752.09
2023-02-08T00:44:46.418Z,103755.53
2023-02-08T00:49:50.166Z,103756.16
2023-02-08T00:54:55.276Z,103754.94
2023-02-08T00:59:59.039Z,103743.56
2023-02-08T01:05:02.820Z,103740.69
2023-02-08T01:10:12.908Z,103740.69
2023-02-08T01:15:17.786Z,103730.22
2023-02-08T01:20:21.722Z,103734.06
2023-02-08T01:25:26.899Z,103729.19
2023-02-08T01:30:30.761Z,103727.06
2023-02-08T01:35:34.594Z,103733.88
2023-02-08T01:40:40.092Z,103732.25
2023-02-08T01:45:44.133Z,103733.16
2023-02-08T01:50:53.585Z,103729.81
2023-02-08T01:56:10.766Z,103734.69
2023-02-08T02:01:15.333Z,103730.34
2023-02-08T02:06:25.103Z,103722.50
2023-02-08T02:11:30.353Z,103723.41
2023-02-08T02:16:34.209Z,103717.00
2023-02-08T02:21:55.740Z,103712.22
2023-02-08T02:27:21.646Z,103710.56
2023-02-08T02:32:40.356Z,103707.72
2023-02-08T02:37:56.424Z,103718.28
2023-02-08T02:43:24.808Z,103714.63
2023-02-08T02:48:39.718Z,103704.63
2023-02-08T02:53:51.097Z,103704.34
2023-02-08T02:58:59.868Z,103711.63
2023-02-08T03:04:15.393Z,103707.66
2023-02-08T03:09:49.211Z,103702.59
2023-02-08T03:15:03.929Z,103697.78
2023-02-08T03:20:13.426Z,103706.34
2023-02-08T03:25:22.142Z,103704.00
2023-02-08T03:30:31.951Z,103711.22
2023-02-08T03:35:45.210Z,103710.50
2023-02-08T03:40:52.938Z,103705.41
2023-02-08T03:46:03.100Z,103699.25
2023-02-08T03:51:10.073Z,103705.91
2023-02-08T03:56:19.976Z,103706.25
2023-02-08T04:01:29.653Z,103712.31
2023-02-08T04:06:34.850Z,103709.06
2023-02-08T04:11:38.605Z,103712.09
2023-02-08T04:16:42.337Z,103706.12
2023-02-08T04:21:47.593Z,103691.56
2023-02-08T04:26:52.570Z,103695.31
2023-02-08T04:31:56.506Z,103690.25
2023-02-08T04:37:01.668Z,103689.12
2023-02-08T04:42:05.613Z,103694.91
2023-02-08T04:47:09.689Z,103700.28
2023-02-08T04:52:14.802Z,103701.06
2023-02-08T04:57:18.568Z,103689.50
2023-02-08T05:02:22.293Z,103705.50
2023-02-08T05:07:27.369Z,103702.41
2023-02-08T05:12:31.194Z,103701.69
2023-02-08T05:17:34.997Z,103707.72
2023-02-08T05:22:40.197Z,103702.41
2023-02-08T05:27:43.924Z,103690.44
2023-02-08T05:32:47.723Z,103686.56
2023-02-08T05:37:52.928Z,103686.56
2023-02-08T05:42:56.732Z,103682.38
2023-02-08T05:48:00.542Z,103678.94
2023-02-08T05:53:05.669Z,103675.09
2023-02-08T05:58:09.709Z,103672.97
2023-02-08T06:03:13.678Z,103670.41
2023-02-08T06:08:19.017Z,103676.19
2023-02-08T06:13:22.821Z,103676.63
2023-02-08T06:18:26.804Z,103681.47
2023-02-08T06:23:31.919Z,103682.47
2023-02-08T06:28:35.661Z,103687.97
2023-02-08T06:33:39.401Z,103680.22
2023-02-08T06:38:45.029Z,103686.38
2023-02-08T06:43:48.780Z,103686.56
2023-02-08T06:48:52.563Z,103695.38
2023-02-08T06:53:57.716Z,103693.56
2023-02-08T06:59:01.431Z,103693.56
2023-02-08T07:04:05.529Z,103697.28
2023-02-08T07:09:10.645Z,103693.13
2023-02-08T07:14:15.708Z,103696.88
2023-02-08T07:19:19.449Z,103701.19
2023-02-08T07:24:24.915Z,103703.22
2023-02-08T07:29:30.615Z,103688.00
2023-02-08T07:34:36.755Z,103689.31
2023-02-08T07:39:42.141Z,103681.47
2023-02-08T07:44:46.102Z,103671.81
2023-02-08T07:49:49.840Z,103670.97
2023-02-08T07:54:54.976Z,103666.13
2023-02-08T07:59:58.738Z,103671.72
2023-02-08T08:05:02.519Z,103670.81
2023-02-08T08:10:08.254Z,103660.53
2023-02-08T08:15:12.089Z,103670.44
2023-02-08T08:20:15.821Z,103667.50
2023-02-08T08:25:21.000Z,103673.09
2023-02-08T08:30:25.088Z,103670.41
2023-02-08T08:35:28.941Z,103670.41
2023-02-08T08:40:34.162Z,103655.44
2023-02-08T08:45:38.261Z,103660.72
2023-02-08T08:50:43.279Z,103657.25
2023-02-08T08:55:48.485Z,103664.47
2023-02-08T09:00:52.274Z,103657.03
2023-02-08T09:05:56.148Z,103660.50
2023-02-08T09:11:07.144Z,103663.00
2023-02-08T09:16:14.592Z,103666.75
2023-02-08T09:21:20.921Z,103667.41
2023-02-08T09:26:26.601Z,103655.16
2023-02-08T09:31:32.673Z,103653.97
2023-02-08T09:36:38.429Z,103650.84
2023-02-08T09:42:04.577Z,103651.75
2023-02-08T09:47:14.714Z,103655.31
2023-02-08T09:52:25.215Z,103658.34
2023-02-08T09:57:36.188Z,103660.66
2023-02-08T10:02:42.918Z,103660.22
2023-02-08T10:07:47.071Z,103667.78
2023-02-08T10:13:00.105Z,103666.63
2023-02-08T10:18:24.439Z,103673.94
2023-02-08T10:23:56.478Z,103663.44
2023-02-08T10:29:25.934Z,103654.50
2023-02-08T10:34:39.733Z,103645.41
2023-02-08T10:39:44.150Z,103662.03
2023-02-08T10:44:57.527Z,103672.59
2023-02-08T10:50:03.983Z,103662.66
2023-02-08T10:55:14.664Z,103664.19
2023-02-08T11:00:23.380Z,103653.56
2023-02-08T11:05:35.096Z,103645.56
2023-02-08T11:10:40.069Z,103635.78
2023-02-08T11:15:48.609Z,103634.53
2023-02-08T11:20:54.605Z,103628.44
2023-02-08T11:26:18.177Z,103636.00
2023-02-08T11:31:23.263Z,103626.41
2023-02-08T11:36:27.830Z,103612.72
2023-02-08T11:41:31.928Z,103598.38
2023-02-08T11:46:39.503Z,103590.44
2023-02-08T11:51:43.328Z,103582.78
2023-02-08T11:57:02.894Z,103581.88
2023-02-08T12:02:32.351Z,103574.19
2023-02-08T12:07:48.873Z,103575.72
2023-02-08T12:13:10.104Z,103563.94
2023-02-08T12:18:36.567Z,103560.03
2023-02-08T12:23:49.597Z,103556.72
2023-02-08T12:29:10.964Z,103543.19
2023-02-08T12:34:23.686Z,103544.44
2023-02-08T12:40:00.735Z,103533.19
2023-02-08T12:45:28.893Z,103524.97
2023-02-08T12:50:42.572Z,103512.50
2023-02-08T12:55:49.887Z,103501.31
2023-02-08T13:00:56.825Z,103491.47
2023-02-08T13:06:07.708Z,103471.16
2023-02-08T13:11:20.103Z,103467.13
2023-02-08T13:16:27.290Z,103459.97
2023-02-08T13:21:38.071Z,103450.88
2023-02-08T13:26:42.171Z,103443.31
2023-02-08T13:31:49.745Z,103446.06
2023-02-08T13:36:59.538Z,103439.87
2023-02-08T13:42:05.717Z,103433.47
2023-02-08T13:47:25.589Z,103427.19
2023-02-08T13:52:53.687Z,103412.25
2023-02-08T13:57:58.930Z,103411.97
2023-02-08T14:03:04.564Z,103406.81
2023-02-08T14:08:19.965Z,103396.44
2023-02-08T14:13:30.222Z,103400.84
2023-02-08T14:18:33.977Z,103395.47
2023-02-08T14:23:40.819Z,103395.00
2023-02-08T14:28:48.814Z,103395.34
2023-02-08T14:33:54.411Z,103385.38
2023-02-08T14:39:29.028Z,103385.84
2023-02-08T14:44:57.156Z,103380.88
2023-02-08T14:50:09.655Z,103374.88
2023-02-08T14:55:20.721Z,103363.69
2023-02-08T15:00:27.946Z,103366.50
2023-02-08T15:05:38.089Z,103353.88
2023-02-08T15:10:45.091Z,103353.31
2023-02-08T15:15:53.862Z,103338.13
2023-02-08T15:21:03.439Z,103327.00
2023-02-08T15:26:21.999Z,103326.84
2023-02-08T15:31:31.799Z,103309.78
2023-02-08T15:36:38.497Z,103302.81
2023-02-08T15:41:43.616Z,103297.47
2023-02-08T15:46:48.528Z,103291.03
2023-02-08T15:51:54.654Z,103286.91
2023-02-08T15:57:03.878Z,103278.69
2023-02-08T16:02:21.290Z,103275.72
2023-02-08T16:07:29.471Z,103265.34
2023-02-08T16:12:35.853Z,103264.91
2023-02-08T16:17:44.719Z,103258.31
2023-02-08T16:22:56.844Z,103254.84
2023-02-08T16:28:02.406Z,103254.47
2023-02-08T16:33:08.776Z,103260.66
2023-02-08T16:38:21.324Z,103266.63
2023-02-08T16:43:31.721Z,103266.50
2023-02-08T16:48:37.545Z,103259.12
2023-02-08T16:53:42.796Z,103265.31
2023-02-08T16:58:48.057Z,103250.50
2023-02-08T17:03:53.000Z,103249.87
2023-02-08T17:08:57.123Z,103243.34
2023-02-08T17:14:02.230Z,103236.69
2023-02-08T17:19:06.050Z,103221.97
2023-02-08T17:24:09.868Z,103229.91
2023-02-08T17:29:15.434Z,103228.62
2023-02-08T17:34:19.249Z,103220.50
2023-02-08T17:39:23.099Z,103217.66
2023-02-08T17:44:28.376Z,103222.19
2023-02-08T17:49:32.133Z,103220.34
2023-02-08T17:54:37.659Z,103209.63
2023-02-08T17:59:43.245Z,103222.09
2023-02-08T18:04:47.276Z,103216.69
2023-02-08T18:09:51.042Z,103215.97
2023-02-08T18:14:56.145Z,103218.69
2023-02-08T18:20:02.178Z,103216.87
2023-02-08T18:25:07.995Z,103212.34
2023-02-08T18:30:14.523Z,103207.06
2023-02-08T18:35:18.407Z,103205.41
2023-02-08T18:40:22.971Z,103201.34
2023-02-08T18:45:28.247Z,103209.47
2023-02-08T18:50:32.309Z,103219.25
2023-02-08T18:55:36.150Z,103217.06
2023-02-08T19:00:41.844Z,103208.56
2023-02-08T19:05:46.442Z,103198.41
2023-02-08T19:10:50.474Z,103202.72
2023-02-08T19:15:55.927Z,103203.03
2023-02-08T19:21:04.972Z,103192.41
2023-02-08T19:26:17.241Z,103196.22
2023-02-08T19:31:24.519Z,103192.69
2023-02-08T19:36:30.792Z,103191.53
2023-02-08T19:41:37.096Z,103194.31
2023-02-08T19:46:44.266Z,103184.84
2023-02-08T19:51:48.286Z,103179.31
2023-02-08T19:56:54.809Z,103175.00
2023-02-08T20:02:01.810Z,103177.31
2023-02-08T20:07:06.414Z,103169.72
2023-02-08T20:12:10.150Z,103171.34
2023-02-08T20:17:15.286Z,103168.56
2023-02-08T20:22:19.427Z,103167.16
2023-02-08T20:27:23.227Z,103171.19
2023-02-08T20:32:28.861Z,103170.38
2023-02-08T20:37:32.925Z,103173.00
2023-02-08T20:42:37.229Z,103173.00
2023-02-08T20:47:46.669Z,103169.53
2023-02-08T20:52:50.709Z,103178.19
2023-02-08T20:57:54.459Z,103167.69
2023-02-08T21:02:59.590Z,103166.16
2023-02-08T21:08:03.534Z,103162.00
2023-02-08T21:13:07.312Z,103151.81
2023-02-08T21:18:12.660Z,103144.91
2023-02-08T21:23:17.129Z,103149.66
2023-02-08T21:28:21.226Z,103143.12
2023-02-08T21:33:26.772Z,103152.13
2023-02-08T21:38:30.906Z,103147.00
2023-02-08T21:43:34.681Z,103145.78
2023-02-08T21:48:53.804Z,103146.78
2023-02-08T21:54:14.860Z,103129.84
2023-02-08T21:59:18.581Z,103143.56
2023-02-08T22:04:23.777Z,103140.16
2023-02-08T22:09:29.102Z,103129.75
2023-02-08T22:14:35.080Z,103130.91
2023-02-08T22:19:40.623Z,103128.88
2023-02-08T22:24:44.422Z,103127.13
2023-02-08T22:29:48.161Z,103120.59
2023-02-08T22:34:53.542Z,103117.13
2023-02-08T22:39:57.405Z,103116.47
2023-02-08T22:45:01.210Z,103107.94
2023-02-08T22:50:07.859Z,103103.25
2023-02-08T22:55:12.368Z,103108.00
2023-02-08T23:00:18.388Z,103099.81
2023-02-08T23:05:23.550Z,103096.91
2023-02-08T23:10:29.558Z,103085.84
2023-02-08T23:15:38.815Z,103081.13
2023-02-08T23:20:44.288Z,103080.06
2023-02-08T23:25:48.975Z,103087.03
2023-02-08T23:30:52.826Z,103085.59
2023-02-08T23:35:57.932Z,103097.59
2023-02-08T23:41:04.028Z,103083.22
2023-02-08T23:46:08.686Z,103088.53
2023-02-08T23:51:13.832Z,103075.56
2023-02-08T23:56:20.662Z,103080.50
